sensor_id;sensor_type;location;lat;lon;timestamp;P1;durP1;ratioP1;P2;durP2;ratioP2
18217;SDS011;9234;49.344;11.120;2023-09-19T00:00:47;8.57;;;2.60;;
18217;SDS011;9234;49.344;11.120;2023-09-19T00:03:16;2.10;;;1.50;;
18217;SDS011;9234;49.344;11.120;2023-09-19T00:05:44;2.67;;;1.50;;
18217;SDS011;9234;49.344;11.120;2023-09-19T00:08:14;1.75;;;1.17;;
18217;SDS011;9234;49.344;11.120;2023-09-19T00:10:43;5.38;;;1.60;;
18217;SDS011;9234;49.344;11.120;2023-09-19T00:13:11;3.47;;;1.67;;
18217;SDS011;9234;49.344;11.120;2023-09-19T00:15:43;3.30;;;1.55;;
18217;SDS011;9234;49.344;11.120;2023-09-19T00:18:16;2.72;;;1.52;;
18217;SDS011;9234;49.344;11.120;2023-09-19T00:20:47;3.20;;;1.50;;
18217;SDS011;9234;49.344;11.120;2023-09-19T00:23:16;2.00;;;1.67;;
18217;SDS011;9234;49.344;11.120;2023-09-19T00:25:46;2.17;;;1.30;;
18217;SDS011;9234;49.344;11.120;2023-09-19T00:28:14;4.05;;;1.40;;
18217;SDS011;9234;49.344;11.120;2023-09-19T00:30:45;1.90;;;1.48;;
18217;SDS011;9234;49.344;11.120;2023-09-19T00:33:16;3.42;;;1.23;;
18217;SDS011;9234;49.344;11.120;2023-09-19T00:35:48;4.38;;;2.00;;
18217;SDS011;9234;49.344;11.120;2023-09-19T00:38:18;2.03;;;1.30;;
18217;SDS011;9234;49.344;11.120;2023-09-19T00:40:51;3.00;;;1.65;;
18217;SDS011;9234;49.344;11.120;2023-09-19T00:43:21;2.10;;;1.38;;
18217;SDS011;9234;49.344;11.120;2023-09-19T00:45:54;4.50;;;1.40;;
18217;SDS011;9234;49.344;11.120;2023-09-19T00:48:24;2.22;;;1.17;;
18217;SDS011;9234;49.344;11.120;2023-09-19T00:50:55;3.05;;;1.20;;
18217;SDS011;9234;49.344;11.120;2023-09-19T00:53:31;1.60;;;1.50;;
18217;SDS011;9234;49.344;11.120;2023-09-19T00:56:01;2.28;;;1.40;;
18217;SDS011;9234;49.344;11.120;2023-09-19T00:58:31;2.35;;;1.42;;
18217;SDS011;9234;49.344;11.120;2023-09-19T01:01:03;2.13;;;1.23;;
18217;SDS011;9234;49.344;11.120;2023-09-19T01:03:34;3.22;;;1.92;;
18217;SDS011;9234;49.344;11.120;2023-09-19T01:06:05;1.80;;;1.33;;
18217;SDS011;9234;49.344;11.120;2023-09-19T01:08:34;2.88;;;1.25;;
18217;SDS011;9234;49.344;11.120;2023-09-19T01:11:06;4.07;;;1.65;;
18217;SDS011;9234;49.344;11.120;2023-09-19T01:13:47;2.70;;;1.30;;
18217;SDS011;9234;49.344;11.120;2023-09-19T01:16:37;2.53;;;1.48;;
18217;SDS011;9234;49.344;11.120;2023-09-19T01:19:43;4.32;;;1.58;;
18217;SDS011;9234;49.344;11.120;2023-09-19T01:22:47;1.90;;;1.10;;
18217;SDS011;9234;49.344;11.120;2023-09-19T01:25:45;2.65;;;1.17;;
18217;SDS011;9234;49.344;11.120;2023-09-19T01:31:40;2.13;;;0.98;;
18217;SDS011;9234;49.344;11.120;2023-09-19T01:34:13;1.88;;;1.20;;
18217;SDS011;9234;49.344;11.120;2023-09-19T01:36:41;3.22;;;1.48;;
18217;SDS011;9234;49.344;11.120;2023-09-19T01:39:12;2.78;;;1.30;;
18217;SDS011;9234;49.344;11.120;2023-09-19T01:41:47;1.40;;;1.00;;
18217;SDS011;9234;49.344;11.120;2023-09-19T01:44:29;2.00;;;1.27;;
18217;SDS011;9234;49.344;11.120;2023-09-19T01:47:19;2.85;;;1.30;;
18217;SDS011;9234;49.344;11.120;2023-09-19T01:50:02;2.08;;;1.10;;
18217;SDS011;9234;49.344;11.120;2023-09-19T01:52:43;4.05;;;1.05;;
18217;SDS011;9234;49.344;11.120;2023-09-19T01:55:25;1.00;;;0.90;;
18217;SDS011;9234;49.344;11.120;2023-09-19T01:57:58;0.98;;;0.90;;
18217;SDS011;9234;49.344;11.120;2023-09-19T02:00:34;1.85;;;1.10;;
18217;SDS011;9234;49.344;11.120;2023-09-19T02:03:09;2.65;;;1.05;;
18217;SDS011;9234;49.344;11.120;2023-09-19T02:05:41;2.08;;;1.30;;
18217;SDS011;9234;49.344;11.120;2023-09-19T02:08:16;1.38;;;0.80;;
18217;SDS011;9234;49.344;11.120;2023-09-19T02:10:46;3.38;;;1.10;;
18217;SDS011;9234;49.344;11.120;2023-09-19T02:13:15;4.70;;;1.23;;
18217;SDS011;9234;49.344;11.120;2023-09-19T02:15:45;2.75;;;1.33;;
18217;SDS011;9234;49.344;11.120;2023-09-19T02:18:15;1.13;;;0.93;;
18217;SDS011;9234;49.344;11.120;2023-09-19T02:20:44;1.65;;;1.00;;
18217;SDS011;9234;49.344;11.120;2023-09-19T02:23:13;1.77;;;0.85;;
18217;SDS011;9234;49.344;11.120;2023-09-19T02:25:51;2.22;;;0.98;;
18217;SDS011;9234;49.344;11.120;2023-09-19T02:28:20;1.58;;;0.80;;
18217;SDS011;9234;49.344;11.120;2023-09-19T02:30:50;1.05;;;0.90;;
18217;SDS011;9234;49.344;11.120;2023-09-19T02:33:21;1.20;;;1.10;;
18217;SDS011;9234;49.344;11.120;2023-09-19T02:35:54;1.90;;;1.30;;
18217;SDS011;9234;49.344;11.120;2023-09-19T02:38:24;1.95;;;1.23;;
18217;SDS011;9234;49.344;11.120;2023-09-19T02:40:52;1.27;;;0.90;;
18217;SDS011;9234;49.344;11.120;2023-09-19T02:43:22;2.38;;;0.90;;
18217;SDS011;9234;49.344;11.120;2023-09-19T02:45:51;1.35;;;0.70;;
18217;SDS011;9234;49.344;11.120;2023-09-19T02:48:24;1.90;;;1.00;;
18217;SDS011;9234;49.344;11.120;2023-09-19T02:50:53;3.85;;;1.00;;
18217;SDS011;9234;49.344;11.120;2023-09-19T02:53:22;1.35;;;0.77;;
18217;SDS011;9234;49.344;11.120;2023-09-19T02:55:50;1.80;;;1.27;;
18217;SDS011;9234;49.344;11.120;2023-09-19T02:58:21;2.38;;;0.80;;
18217;SDS011;9234;49.344;11.120;2023-09-19T03:00:52;2.03;;;1.50;;
18217;SDS011;9234;49.344;11.120;2023-09-19T03:03:24;1.08;;;0.85;;
18217;SDS011;9234;49.344;11.120;2023-09-19T03:05:55;2.47;;;1.20;;
18217;SDS011;9234;49.344;11.120;2023-09-19T03:08:25;2.25;;;1.33;;
18217;SDS011;9234;49.344;11.120;2023-09-19T03:10:53;2.42;;;1.00;;
18217;SDS011;9234;49.344;11.120;2023-09-19T03:13:22;1.27;;;0.85;;
18217;SDS011;9234;49.344;11.120;2023-09-19T03:15:50;1.77;;;1.10;;
18217;SDS011;9234;49.344;11.120;2023-09-19T03:18:26;3.03;;;1.00;;
18217;SDS011;9234;49.344;11.120;2023-09-19T03:20:55;1.50;;;0.90;;
18217;SDS011;9234;49.344;11.120;2023-09-19T03:23:26;2.58;;;1.10;;
18217;SDS011;9234;49.344;11.120;2023-09-19T03:25:55;2.47;;;1.17;;
18217;SDS011;9234;49.344;11.120;2023-09-19T03:28:25;1.92;;;1.27;;
18217;SDS011;9234;49.344;11.120;2023-09-19T03:30:58;1.50;;;0.93;;
18217;SDS011;9234;49.344;11.120;2023-09-19T03:33:30;2.03;;;1.17;;
18217;SDS011;9234;49.344;11.120;2023-09-19T03:36:02;1.67;;;0.90;;
18217;SDS011;9234;49.344;11.120;2023-09-19T03:38:32;1.23;;;0.93;;
18217;SDS011;9234;49.344;11.120;2023-09-19T03:41:01;3.55;;;1.20;;
18217;SDS011;9234;49.344;11.120;2023-09-19T03:43:32;1.50;;;1.15;;
18217;SDS011;9234;49.344;11.120;2023-09-19T03:46:02;4.35;;;1.25;;
18217;SDS011;9234;49.344;11.120;2023-09-19T03:48:33;1.55;;;0.98;;
18217;SDS011;9234;49.344;11.120;2023-09-19T03:51:02;0.95;;;0.80;;
18217;SDS011;9234;49.344;11.120;2023-09-19T03:53:31;1.35;;;0.77;;
18217;SDS011;9234;49.344;11.120;2023-09-19T03:56:00;1.95;;;1.08;;
18217;SDS011;9234;49.344;11.120;2023-09-19T03:58:32;3.45;;;1.20;;
18217;SDS011;9234;49.344;11.120;2023-09-19T04:01:04;2.63;;;1.25;;
18217;SDS011;9234;49.344;11.120;2023-09-19T04:03:35;1.83;;;1.02;;
18217;SDS011;9234;49.344;11.120;2023-09-19T04:06:13;3.13;;;1.08;;
18217;SDS011;9234;49.344;11.120;2023-09-19T04:08:42;2.28;;;1.02;;
18217;SDS011;9234;49.344;11.120;2023-09-19T04:11:12;0.85;;;0.70;;
18217;SDS011;9234;49.344;11.120;2023-09-19T04:13:41;1.70;;;0.95;;
18217;SDS011;9234;49.344;11.120;2023-09-19T04:16:09;1.23;;;1.00;;
18217;SDS011;9234;49.344;11.120;2023-09-19T04:18:39;3.47;;;0.98;;
18217;SDS011;9234;49.344;11.120;2023-09-19T04:21:08;2.13;;;1.05;;
18217;SDS011;9234;49.344;11.120;2023-09-19T04:23:37;2.78;;;1.00;;
18217;SDS011;9234;49.344;11.120;2023-09-19T04:26:06;1.40;;;1.23;;
18217;SDS011;9234;49.344;11.120;2023-09-19T04:28:34;1.80;;;0.95;;
18217;SDS011;9234;49.344;11.120;2023-09-19T04:31:05;3.83;;;1.27;;
18217;SDS011;9234;49.344;11.120;2023-09-19T04:33:34;1.27;;;1.05;;
18217;SDS011;9234;49.344;11.120;2023-09-19T04:36:04;1.40;;;1.10;;
18217;SDS011;9234;49.344;11.120;2023-09-19T04:38:54;1.48;;;0.70;;
18217;SDS011;9234;49.344;11.120;2023-09-19T04:41:22;2.70;;;1.20;;
18217;SDS011;9234;49.344;11.120;2023-09-19T04:43:50;3.17;;;1.40;;
18217;SDS011;9234;49.344;11.120;2023-09-19T04:46:19;1.50;;;1.33;;
18217;SDS011;9234;49.344;11.120;2023-09-19T04:48:47;2.42;;;0.90;;
18217;SDS011;9234;49.344;11.120;2023-09-19T04:51:17;1.20;;;0.70;;
18217;SDS011;9234;49.344;11.120;2023-09-19T04:53:47;1.90;;;1.33;;
18217;SDS011;9234;49.344;11.120;2023-09-19T04:56:15;1.95;;;1.15;;
18217;SDS011;9234;49.344;11.120;2023-09-19T04:58:44;1.38;;;1.02;;
18217;SDS011;9234;49.344;11.120;2023-09-19T05:01:13;2.67;;;1.67;;
18217;SDS011;9234;49.344;11.120;2023-09-19T05:03:42;2.58;;;1.33;;
18217;SDS011;9234;49.344;11.120;2023-09-19T05:06:17;1.95;;;1.35;;
18217;SDS011;9234;49.344;11.120;2023-09-19T05:08:46;3.20;;;2.42;;
18217;SDS011;9234;49.344;11.120;2023-09-19T05:11:17;3.50;;;1.60;;
18217;SDS011;9234;49.344;11.120;2023-09-19T05:13:45;1.27;;;1.17;;
18217;SDS011;9234;49.344;11.120;2023-09-19T05:16:14;3.05;;;1.20;;
18217;SDS011;9234;49.344;11.120;2023-09-19T05:18:42;1.70;;;1.00;;
18217;SDS011;9234;49.344;11.120;2023-09-19T05:21:11;4.80;;;1.50;;
18217;SDS011;9234;49.344;11.120;2023-09-19T05:23:41;1.52;;;1.27;;
18217;SDS011;9234;49.344;11.120;2023-09-19T05:26:11;3.85;;;1.10;;
18217;SDS011;9234;49.344;11.120;2023-09-19T05:28:42;2.78;;;1.13;;
18217;SDS011;9234;49.344;11.120;2023-09-19T05:31:10;3.83;;;1.20;;
18217;SDS011;9234;49.344;11.120;2023-09-19T05:33:39;1.85;;;1.10;;
18217;SDS011;9234;49.344;11.120;2023-09-19T05:36:07;2.22;;;1.10;;
18217;SDS011;9234;49.344;11.120;2023-09-19T05:38:38;2.90;;;1.00;;
18217;SDS011;9234;49.344;11.120;2023-09-19T05:41:09;2.80;;;1.00;;
18217;SDS011;9234;49.344;11.120;2023-09-19T05:43:39;2.45;;;1.17;;
18217;SDS011;9234;49.344;11.120;2023-09-19T05:46:08;2.20;;;1.25;;
18217;SDS011;9234;49.344;11.120;2023-09-19T05:48:37;1.20;;;1.10;;
18217;SDS011;9234;49.344;11.120;2023-09-19T05:51:07;2.72;;;1.10;;
18217;SDS011;9234;49.344;11.120;2023-09-19T05:53:36;4.82;;;1.95;;
18217;SDS011;9234;49.344;11.120;2023-09-19T05:56:04;2.13;;;1.08;;
18217;SDS011;9234;49.344;11.120;2023-09-19T05:58:34;1.73;;;1.13;;
18217;SDS011;9234;49.344;11.120;2023-09-19T06:01:02;2.33;;;1.10;;
18217;SDS011;9234;49.344;11.120;2023-09-19T06:03:30;4.45;;;1.20;;
18217;SDS011;9234;49.344;11.120;2023-09-19T06:05:58;5.32;;;1.05;;
18217;SDS011;9234;49.344;11.120;2023-09-19T06:08:27;1.90;;;1.05;;
18217;SDS011;9234;49.344;11.120;2023-09-19T06:10:56;1.90;;;1.20;;
18217;SDS011;9234;49.344;11.120;2023-09-19T06:13:27;3.67;;;1.30;;
18217;SDS011;9234;49.344;11.120;2023-09-19T06:15:57;1.48;;;1.05;;
18217;SDS011;9234;49.344;11.120;2023-09-19T06:18:26;3.35;;;1.17;;
18217;SDS011;9234;49.344;11.120;2023-09-19T06:20:55;1.48;;;1.08;;
18217;SDS011;9234;49.344;11.120;2023-09-19T06:23:24;1.33;;;0.95;;
18217;SDS011;9234;49.344;11.120;2023-09-19T06:25:55;4.00;;;1.08;;
18217;SDS011;9234;49.344;11.120;2023-09-19T06:28:24;2.53;;;1.10;;
18217;SDS011;9234;49.344;11.120;2023-09-19T06:30:54;1.02;;;0.85;;
18217;SDS011;9234;49.344;11.120;2023-09-19T06:33:24;4.22;;;1.00;;
18217;SDS011;9234;49.344;11.120;2023-09-19T06:35:53;1.35;;;0.98;;
18217;SDS011;9234;49.344;11.120;2023-09-19T06:38:25;2.53;;;1.00;;
18217;SDS011;9234;49.344;11.120;2023-09-19T06:40:54;1.67;;;1.10;;
18217;SDS011;9234;49.344;11.120;2023-09-19T06:43:23;1.83;;;1.30;;
18217;SDS011;9234;49.344;11.120;2023-09-19T06:45:52;1.60;;;1.13;;
18217;SDS011;9234;49.344;11.120;2023-09-19T06:48:22;1.95;;;1.05;;
18217;SDS011;9234;49.344;11.120;2023-09-19T06:50:52;1.13;;;1.08;;
18217;SDS011;9234;49.344;11.120;2023-09-19T06:53:22;2.60;;;1.17;;
18217;SDS011;9234;49.344;11.120;2023-09-19T06:55:51;2.67;;;0.90;;
18217;SDS011;9234;49.344;11.120;2023-09-19T06:58:19;4.18;;;1.00;;
18217;SDS011;9234;49.344;11.120;2023-09-19T07:00:48;2.80;;;1.27;;
18217;SDS011;9234;49.344;11.120;2023-09-19T07:03:16;2.13;;;1.10;;
18217;SDS011;9234;49.344;11.120;2023-09-19T07:05:48;3.00;;;1.15;;
18217;SDS011;9234;49.344;11.120;2023-09-19T07:08:16;3.53;;;1.30;;
18217;SDS011;9234;49.344;11.120;2023-09-19T07:10:45;2.83;;;1.23;;
18217;SDS011;9234;49.344;11.120;2023-09-19T07:13:16;2.33;;;1.30;;
18217;SDS011;9234;49.344;11.120;2023-09-19T07:15:44;2.50;;;1.25;;
18217;SDS011;9234;49.344;11.120;2023-09-19T07:18:17;3.08;;;1.45;;
18217;SDS011;9234;49.344;11.120;2023-09-19T07:20:48;3.25;;;1.75;;
18217;SDS011;9234;49.344;11.120;2023-09-19T07:23:16;3.30;;;1.27;;
18217;SDS011;9234;49.344;11.120;2023-09-19T07:25:47;2.03;;;1.35;;
18217;SDS011;9234;49.344;11.120;2023-09-19T07:28:16;1.45;;;1.15;;
18217;SDS011;9234;49.344;11.120;2023-09-19T07:30:44;2.28;;;1.40;;
18217;SDS011;9234;49.344;11.120;2023-09-19T07:33:12;3.50;;;1.60;;
18217;SDS011;9234;49.344;11.120;2023-09-19T07:35:44;2.50;;;1.65;;
18217;SDS011;9234;49.344;11.120;2023-09-19T07:38:15;2.83;;;1.27;;
18217;SDS011;9234;49.344;11.120;2023-09-19T07:40:44;4.88;;;2.13;;
18217;SDS011;9234;49.344;11.120;2023-09-19T07:43:12;3.35;;;1.25;;
18217;SDS011;9234;49.344;11.120;2023-09-19T07:45:41;1.63;;;1.25;;
18217;SDS011;9234;49.344;11.120;2023-09-19T07:48:09;2.78;;;1.27;;
18217;SDS011;9234;49.344;11.120;2023-09-19T07:50:41;1.92;;;1.30;;
18217;SDS011;9234;49.344;11.120;2023-09-19T07:53:11;3.22;;;1.45;;
18217;SDS011;9234;49.344;11.120;2023-09-19T07:55:41;3.42;;;1.15;;
18217;SDS011;9234;49.344;11.120;2023-09-19T07:58:10;2.92;;;1.30;;
18217;SDS011;9234;49.344;11.120;2023-09-19T08:00:40;5.32;;;1.38;;
18217;SDS011;9234;49.344;11.120;2023-09-19T08:03:08;2.00;;;1.33;;
18217;SDS011;9234;49.344;11.120;2023-09-19T08:05:43;1.77;;;1.17;;
18217;SDS011;9234;49.344;11.120;2023-09-19T08:08:12;3.30;;;1.30;;
18217;SDS011;9234;49.344;11.120;2023-09-19T08:10:43;2.75;;;1.58;;
18217;SDS011;9234;49.344;11.120;2023-09-19T08:13:15;4.68;;;1.30;;
18217;SDS011;9234;49.344;11.120;2023-09-19T08:15:44;2.97;;;1.23;;
18217;SDS011;9234;49.344;11.120;2023-09-19T08:18:14;2.17;;;1.13;;
18217;SDS011;9234;49.344;11.120;2023-09-19T08:20:43;3.30;;;1.52;;
18217;SDS011;9234;49.344;11.120;2023-09-19T08:23:17;1.65;;;1.10;;
18217;SDS011;9234;49.344;11.120;2023-09-19T08:25:48;3.20;;;1.35;;
18217;SDS011;9234;49.344;11.120;2023-09-19T08:28:17;2.40;;;1.50;;
18217;SDS011;9234;49.344;11.120;2023-09-19T08:30:50;2.85;;;1.20;;
18217;SDS011;9234;49.344;11.120;2023-09-19T08:33:19;2.50;;;1.25;;
18217;SDS011;9234;49.344;11.120;2023-09-19T08:35:47;2.28;;;1.20;;
18217;SDS011;9234;49.344;11.120;2023-09-19T08:38:16;4.97;;;1.30;;
18217;SDS011;9234;49.344;11.120;2023-09-19T08:40:44;3.13;;;1.40;;
18217;SDS011;9234;49.344;11.120;2023-09-19T08:43:14;2.72;;;1.48;;
18217;SDS011;9234;49.344;11.120;2023-09-19T08:45:42;3.28;;;1.70;;
18217;SDS011;9234;49.344;11.120;2023-09-19T08:48:13;3.33;;;1.17;;
18217;SDS011;9234;49.344;11.120;2023-09-19T08:50:52;1.90;;;1.20;;
18217;SDS011;9234;49.344;11.120;2023-09-19T08:53:26;2.25;;;1.13;;
18217;SDS011;9234;49.344;11.120;2023-09-19T08:56:01;3.75;;;1.25;;
18217;SDS011;9234;49.344;11.120;2023-09-19T08:58:42;2.05;;;1.13;;
18217;SDS011;9234;49.344;11.120;2023-09-19T09:01:17;1.33;;;0.95;;
18217;SDS011;9234;49.344;11.120;2023-09-19T09:03:51;1.83;;;1.15;;
18217;SDS011;9234;49.344;11.120;2023-09-19T09:06:21;3.72;;;1.88;;
18217;SDS011;9234;49.344;11.120;2023-09-19T09:08:51;1.35;;;1.10;;
18217;SDS011;9234;49.344;11.120;2023-09-19T09:11:20;2.00;;;1.10;;
18217;SDS011;9234;49.344;11.120;2023-09-19T09:13:52;4.03;;;1.40;;
18217;SDS011;9234;49.344;11.120;2023-09-19T09:16:21;2.72;;;1.30;;
18217;SDS011;9234;49.344;11.120;2023-09-19T09:18:52;3.92;;;1.10;;
18217;SDS011;9234;49.344;11.120;2023-09-19T09:21:21;3.28;;;0.90;;
18217;SDS011;9234;49.344;11.120;2023-09-19T09:23:53;1.38;;;0.93;;
18217;SDS011;9234;49.344;11.120;2023-09-19T09:29:11;2.47;;;0.95;;
18217;SDS011;9234;49.344;11.120;2023-09-19T09:31:45;1.35;;;1.00;;
18217;SDS011;9234;49.344;11.120;2023-09-19T09:34:14;2.50;;;0.90;;
18217;SDS011;9234;49.344;11.120;2023-09-19T09:36:43;3.83;;;0.98;;
18217;SDS011;9234;49.344;11.120;2023-09-19T09:39:29;2.92;;;1.20;;
18217;SDS011;9234;49.344;11.120;2023-09-19T09:41:58;2.42;;;1.02;;
18217;SDS011;9234;49.344;11.120;2023-09-19T09:44:28;2.22;;;1.02;;
18217;SDS011;9234;49.344;11.120;2023-09-19T09:46:59;1.48;;;0.80;;
18217;SDS011;9234;49.344;11.120;2023-09-19T09:49:47;3.25;;;1.08;;
18217;SDS011;9234;49.344;11.120;2023-09-19T09:52:44;3.22;;;0.90;;
18217;SDS011;9234;49.344;11.120;2023-09-19T09:55:13;3.53;;;1.10;;
18217;SDS011;9234;49.344;11.120;2023-09-19T09:57:42;2.05;;;1.08;;
18217;SDS011;9234;49.344;11.120;2023-09-19T10:00:12;2.05;;;1.02;;
18217;SDS011;9234;49.344;11.120;2023-09-19T10:02:46;2.75;;;1.17;;
18217;SDS011;9234;49.344;11.120;2023-09-19T10:05:15;4.00;;;1.58;;
18217;SDS011;9234;49.344;11.120;2023-09-19T10:07:54;2.70;;;1.35;;
18217;SDS011;9234;49.344;11.120;2023-09-19T10:10:30;2.55;;;1.02;;
18217;SDS011;9234;49.344;11.120;2023-09-19T10:13:20;1.63;;;1.13;;
18217;SDS011;9234;49.344;11.120;2023-09-19T10:15:51;2.92;;;1.40;;
18217;SDS011;9234;49.344;11.120;2023-09-19T10:18:22;4.13;;;1.20;;
18217;SDS011;9234;49.344;11.120;2023-09-19T10:20:53;3.25;;;1.23;;
18217;SDS011;9234;49.344;11.120;2023-09-19T10:23:22;3.08;;;1.40;;
18217;SDS011;9234;49.344;11.120;2023-09-19T10:25:55;2.15;;;1.00;;
18217;SDS011;9234;49.344;11.120;2023-09-19T10:28:28;1.67;;;1.00;;
18217;SDS011;9234;49.344;11.120;2023-09-19T10:30:59;3.38;;;1.27;;
18217;SDS011;9234;49.344;11.120;2023-09-19T10:33:32;3.17;;;1.55;;
18217;SDS011;9234;49.344;11.120;2023-09-19T10:36:04;2.00;;;1.40;;
18217;SDS011;9234;49.344;11.120;2023-09-19T10:38:33;1.88;;;1.38;;
18217;SDS011;9234;49.344;11.120;2023-09-19T10:41:07;3.13;;;1.45;;
18217;SDS011;9234;49.344;11.120;2023-09-19T10:43:41;2.10;;;1.40;;
18217;SDS011;9234;49.344;11.120;2023-09-19T10:46:17;1.10;;;1.00;;
18217;SDS011;9234;49.344;11.120;2023-09-19T10:48:46;1.48;;;1.27;;
18217;SDS011;9234;49.344;11.120;2023-09-19T10:51:16;1.52;;;1.13;;
18217;SDS011;9234;49.344;11.120;2023-09-19T10:53:51;1.38;;;0.82;;
18217;SDS011;9234;49.344;11.120;2023-09-19T10:56:38;2.08;;;1.05;;
18217;SDS011;9234;49.344;11.120;2023-09-19T10:59:14;1.42;;;1.00;;
18217;SDS011;9234;49.344;11.120;2023-09-19T11:01:46;1.55;;;1.10;;
18217;SDS011;9234;49.344;11.120;2023-09-19T11:04:22;3.05;;;1.08;;
18217;SDS011;9234;49.344;11.120;2023-09-19T11:07:03;3.10;;;1.27;;
18217;SDS011;9234;49.344;11.120;2023-09-19T11:09:42;1.45;;;0.90;;
18217;SDS011;9234;49.344;11.120;2023-09-19T11:18:54;1.90;;;1.02;;
18217;SDS011;9234;49.344;11.120;2023-09-19T11:21:41;3.03;;;1.15;;
18217;SDS011;9234;49.344;11.120;2023-09-19T11:24:28;2.13;;;0.85;;
18217;SDS011;9234;49.344;11.120;2023-09-19T11:27:10;1.40;;;0.95;;
18217;SDS011;9234;49.344;11.120;2023-09-19T11:29:43;6.72;;;1.30;;
18217;SDS011;9234;49.344;11.120;2023-09-19T11:32:13;2.35;;;0.75;;
18217;SDS011;9234;49.344;11.120;2023-09-19T11:34:47;2.03;;;1.13;;
18217;SDS011;9234;49.344;11.120;2023-09-19T11:40:37;2.45;;;0.90;;
18217;SDS011;9234;49.344;11.120;2023-09-19T11:46:03;1.50;;;1.20;;
18217;SDS011;9234;49.344;11.120;2023-09-19T11:48:33;1.67;;;0.80;;
18217;SDS011;9234;49.344;11.120;2023-09-19T11:51:16;1.75;;;0.80;;
18217;SDS011;9234;49.344;11.120;2023-09-19T11:53:55;1.63;;;0.70;;
18217;SDS011;9234;49.344;11.120;2023-09-19T11:56:26;3.97;;;0.95;;
18217;SDS011;9234;49.344;11.120;2023-09-19T11:58:57;2.60;;;0.80;;
18217;SDS011;9234;49.344;11.120;2023-09-19T12:01:28;3.60;;;0.82;;
18217;SDS011;9234;49.344;11.120;2023-09-19T12:03:59;1.42;;;1.10;;
18217;SDS011;9234;49.344;11.120;2023-09-19T12:06:32;2.95;;;0.90;;
18217;SDS011;9234;49.344;11.120;2023-09-19T12:09:02;3.53;;;0.73;;
18217;SDS011;9234;49.344;11.120;2023-09-19T12:11:33;1.55;;;0.60;;
18217;SDS011;9234;49.344;11.120;2023-09-19T12:14:10;2.70;;;0.82;;
18217;SDS011;9234;49.344;11.120;2023-09-19T12:16:50;2.08;;;0.82;;
18217;SDS011;9234;49.344;11.120;2023-09-19T12:19:22;2.90;;;0.98;;
18217;SDS011;9234;49.344;11.120;2023-09-19T12:21:55;3.03;;;1.20;;
18217;SDS011;9234;49.344;11.120;2023-09-19T12:24:26;2.33;;;0.90;;
18217;SDS011;9234;49.344;11.120;2023-09-19T12:27:00;1.50;;;0.90;;
18217;SDS011;9234;49.344;11.120;2023-09-19T12:29:32;2.33;;;0.70;;
18217;SDS011;9234;49.344;11.120;2023-09-19T12:32:10;3.83;;;0.90;;
18217;SDS011;9234;49.344;11.120;2023-09-19T12:34:40;3.30;;;0.93;;
18217;SDS011;9234;49.344;11.120;2023-09-19T12:37:11;2.47;;;1.00;;
18217;SDS011;9234;49.344;11.120;2023-09-19T12:39:47;1.70;;;0.80;;
18217;SDS011;9234;49.344;11.120;2023-09-19T12:42:19;1.08;;;0.68;;
18217;SDS011;9234;49.344;11.120;2023-09-19T12:44:49;0.77;;;0.65;;
18217;SDS011;9234;49.344;11.120;2023-09-19T12:47:21;4.30;;;0.80;;
18217;SDS011;9234;49.344;11.120;2023-09-19T12:50:10;1.40;;;0.90;;
18217;SDS011;9234;49.344;11.120;2023-09-19T12:52:43;1.50;;;0.90;;
18217;SDS011;9234;49.344;11.120;2023-09-19T12:55:22;1.63;;;0.77;;
18217;SDS011;9234;49.344;11.120;2023-09-19T12:57:59;1.92;;;0.93;;
18217;SDS011;9234;49.344;11.120;2023-09-19T13:00:39;1.58;;;0.82;;
18217;SDS011;9234;49.344;11.120;2023-09-19T13:03:15;1.35;;;0.88;;
18217;SDS011;9234;49.344;11.120;2023-09-19T13:05:49;4.20;;;1.30;;
18217;SDS011;9234;49.344;11.120;2023-09-19T13:08:22;3.08;;;1.00;;
18217;SDS011;9234;49.344;11.120;2023-09-19T13:11:03;4.00;;;1.27;;
18217;SDS011;9234;49.344;11.120;2023-09-19T13:13:37;1.30;;;0.82;;
18217;SDS011;9234;49.344;11.120;2023-09-19T13:16:08;1.50;;;1.05;;
18217;SDS011;9234;49.344;11.120;2023-09-19T13:18:44;1.50;;;0.90;;
18217;SDS011;9234;49.344;11.120;2023-09-19T13:21:17;4.90;;;2.65;;
18217;SDS011;9234;49.344;11.120;2023-09-19T13:24:18;1.15;;;0.90;;
18217;SDS011;9234;49.344;11.120;2023-09-19T13:26:49;2.28;;;1.00;;
18217;SDS011;9234;49.344;11.120;2023-09-19T13:29:17;1.27;;;1.02;;
18217;SDS011;9234;49.344;11.120;2023-09-19T13:31:46;4.35;;;1.20;;
18217;SDS011;9234;49.344;11.120;2023-09-19T13:34:15;3.15;;;1.25;;
18217;SDS011;9234;49.344;11.120;2023-09-19T13:36:44;2.97;;;1.10;;
18217;SDS011;9234;49.344;11.120;2023-09-19T13:39:16;1.38;;;1.10;;
18217;SDS011;9234;49.344;11.120;2023-09-19T13:41:44;2.85;;;0.93;;
18217;SDS011;9234;49.344;11.120;2023-09-19T13:44:14;1.35;;;0.98;;
18217;SDS011;9234;49.344;11.120;2023-09-19T13:46:44;3.88;;;1.40;;
18217;SDS011;9234;49.344;11.120;2023-09-19T13:49:13;1.73;;;0.85;;
18217;SDS011;9234;49.344;11.120;2023-09-19T13:51:42;3.10;;;0.90;;
18217;SDS011;9234;49.344;11.120;2023-09-19T13:54:11;1.63;;;1.00;;
18217;SDS011;9234;49.344;11.120;2023-09-19T13:56:42;1.17;;;0.80;;
18217;SDS011;9234;49.344;11.120;2023-09-19T13:59:10;1.27;;;0.82;;
18217;SDS011;9234;49.344;11.120;2023-09-19T14:01:39;1.85;;;0.93;;
18217;SDS011;9234;49.344;11.120;2023-09-19T14:04:08;1.35;;;1.05;;
18217;SDS011;9234;49.344;11.120;2023-09-19T14:06:41;1.85;;;1.10;;
18217;SDS011;9234;49.344;11.120;2023-09-19T14:09:10;1.08;;;0.90;;
18217;SDS011;9234;49.344;11.120;2023-09-19T14:11:39;2.53;;;1.20;;
18217;SDS011;9234;49.344;11.120;2023-09-19T14:14:12;3.85;;;1.10;;
18217;SDS011;9234;49.344;11.120;2023-09-19T14:16:41;2.78;;;0.90;;
18217;SDS011;9234;49.344;11.120;2023-09-19T14:19:10;2.28;;;1.20;;
18217;SDS011;9234;49.344;11.120;2023-09-19T14:21:38;3.63;;;1.00;;
18217;SDS011;9234;49.344;11.120;2023-09-19T14:24:06;1.23;;;0.98;;
18217;SDS011;9234;49.344;11.120;2023-09-19T14:26:35;1.25;;;0.98;;
18217;SDS011;9234;49.344;11.120;2023-09-19T14:29:05;3.22;;;1.20;;
18217;SDS011;9234;49.344;11.120;2023-09-19T14:31:36;2.15;;;1.20;;
18217;SDS011;9234;49.344;11.120;2023-09-19T14:34:06;3.22;;;1.10;;
18217;SDS011;9234;49.344;11.120;2023-09-19T14:36:36;2.00;;;1.10;;
18217;SDS011;9234;49.344;11.120;2023-09-19T14:39:05;1.73;;;0.93;;
18217;SDS011;9234;49.344;11.120;2023-09-19T14:41:34;1.95;;;1.00;;
18217;SDS011;9234;49.344;11.120;2023-09-19T14:44:03;1.05;;;0.95;;
18217;SDS011;9234;49.344;11.120;2023-09-19T14:46:35;4.45;;;1.38;;
18217;SDS011;9234;49.344;11.120;2023-09-19T14:49:04;3.83;;;1.17;;
18217;SDS011;9234;49.344;11.120;2023-09-19T14:51:32;3.05;;;1.45;;
18217;SDS011;9234;49.344;11.120;2023-09-19T14:54:02;2.08;;;1.08;;
18217;SDS011;9234;49.344;11.120;2023-09-19T14:56:31;1.83;;;1.10;;
18217;SDS011;9234;49.344;11.120;2023-09-19T14:58:59;1.40;;;0.80;;
18217;SDS011;9234;49.344;11.120;2023-09-19T15:01:33;1.95;;;0.95;;
18217;SDS011;9234;49.344;11.120;2023-09-19T15:04:02;1.73;;;0.95;;
18217;SDS011;9234;49.344;11.120;2023-09-19T15:06:31;2.53;;;0.90;;
18217;SDS011;9234;49.344;11.120;2023-09-19T15:08:59;1.80;;;1.00;;
18217;SDS011;9234;49.344;11.120;2023-09-19T15:11:27;1.48;;;0.70;;
18217;SDS011;9234;49.344;11.120;2023-09-19T15:13:56;1.10;;;0.88;;
18217;SDS011;9234;49.344;11.120;2023-09-19T15:16:26;1.50;;;0.63;;
18217;SDS011;9234;49.344;11.120;2023-09-19T15:18:55;3.03;;;1.10;;
18217;SDS011;9234;49.344;11.120;2023-09-19T15:21:23;1.90;;;0.90;;
18217;SDS011;9234;49.344;11.120;2023-09-19T15:23:51;1.60;;;1.20;;
18217;SDS011;9234;49.344;11.120;2023-09-19T15:26:19;3.97;;;1.20;;
18217;SDS011;9234;49.344;11.120;2023-09-19T15:28:48;1.15;;;0.90;;
18217;SDS011;9234;49.344;11.120;2023-09-19T15:31:17;6.15;;;3.38;;
18217;SDS011;9234;49.344;11.120;2023-09-19T15:33:47;9.90;;;7.82;;